Time;durP1;ratioP1;P1;durP2;ratioP2;P2;SDS_P1;SDS_P2;PMS_P1;PMS_P2;Temp;Humidity;BMP_temperature;BMP_pressure;BME280_temperature;BME280_humidity;BME280_pressure;Samples;Min_cycle;Max_cycle;Signal;HPM_P1;HPM_P2
2022/07/28 00:00:08;;;;;;;3.10;1.83;;;10.50;99.90;;;;;;4974461;28;20135;-65
2022/07/28 00:02:34;;;;;;;2.58;1.80;;;10.60;99.90;;;;;;4982799;28;20038;-66
2022/07/28 00:04:59;;;;;;;6.20;2.00;;;10.60;99.90;;;;;;4971922;28;20047;-64
2022/07/28 00:07:25;;;;;;;7.45;2.38;;;10.70;99.90;;;;;;4969548;28;20406;-64
2022/07/28 00:09:51;;;;;;;4.28;2.05;;;10.80;99.90;;;;;;4970000;28;20042;-65
2022/07/28 00:12:17;;;;;;;6.03;2.20;;;10.90;99.90;;;;;;4970109;28;20043;-65
2022/07/28 00:14:43;;;;;;;5.97;2.95;;;10.90;99.90;;;;;;4969162;28;20118;-65
2022/07/28 00:17:08;;;;;;;5.32;2.30;;;10.90;99.90;;;;;;4971986;28;20052;-65
2022/07/28 00:19:34;;;;;;;2.60;2.00;;;10.90;99.90;;;;;;4955178;28;20093;-64
2022/07/28 00:22:01;;;;;;;3.22;1.95;;;10.90;99.90;;;;;;4977149;28;20039;-66
2022/07/28 00:24:27;;;;;;;2.80;2.10;;;10.90;99.90;;;;;;4972628;28;20100;-65
2022/07/28 00:26:53;;;;;;;3.13;2.20;;;10.80;99.90;;;;;;4973644;28;20039;-65
2022/07/28 00:29:19;;;;;;;2.30;1.80;;;10.80;99.90;;;;;;4974023;28;20058;-65
2022/07/28 00:31:44;;;;;;;5.30;2.20;;;10.80;99.90;;;;;;4972530;28;20065;-65
2022/07/28 00:34:10;;;;;;;4.40;2.60;;;10.70;99.90;;;;;;4972932;28;20079;-65
2022/07/28 00:36:36;;;;;;;6.18;2.30;;;10.70;99.90;;;;;;4972662;28;20454;-65
2022/07/28 00:39:03;;;;;;;4.28;2.63;;;10.70;99.90;;;;;;4979521;28;20030;-65
2022/07/28 00:41:28;;;;;;;8.60;2.28;;;10.70;99.90;;;;;;4955425;28;20078;-64
2022/07/28 00:43:54;;;;;;;5.25;2.28;;;10.60;99.90;;;;;;4972976;28;20530;-65
2022/07/28 00:46:21;;;;;;;5.32;2.47;;;10.50;99.90;;;;;;4975196;28;20129;-65
2022/07/28 00:48:49;;;;;;;4.25;2.67;;;10.50;99.90;;;;;;4975941;28;20035;-65
2022/07/28 00:51:16;;;;;;;5.70;2.75;;;10.30;99.90;;;;;;4972689;28;20178;-64
2022/07/28 00:53:43;;;;;;;5.15;2.50;;;10.30;99.90;;;;;;4971556;28;20388;-65
2022/07/28 00:56:08;;;;;;;5.72;2.72;;;10.30;99.90;;;;;;4972754;28;20118;-64
2022/07/28 00:58:36;;;;;;;4.95;3.10;;;10.30;99.90;;;;;;4972677;28;20508;-64
2022/07/28 01:01:03;;;;;;;5.43;2.60;;;10.30;99.90;;;;;;4974713;28;20513;-65
2022/07/28 01:03:30;;;;;;;3.30;2.40;;;10.40;99.90;;;;;;4988672;28;20630;-64
2022/07/28 01:06:07;;;;;;;8.10;2.90;;;10.40;99.90;;;;;;4972052;28;20171;-65
2022/07/28 01:08:46;;;;;;;5.93;2.88;;;10.50;99.90;;;;;;4974650;28;20162;-64
2022/07/28 01:11:42;;;;;;;5.80;2.97;;;10.60;99.90;;;;;;4980492;28;20042;-64
2022/07/28 01:14:16;;;;;;;6.03;3.03;;;10.60;99.90;;;;;;4980436;28;20039;-66
2022/07/28 01:17:23;;;;;;;4.93;2.83;;;10.50;99.90;;;;;;4971277;28;20054;-64
2022/07/28 01:20:07;;;;;;;7.95;2.80;;;10.50;99.90;;;;;;4974326;28;20038;-65
2022/07/28 01:22:39;;;;;;;5.18;2.55;;;10.40;99.90;;;;;;4971506;28;20089;-64
2022/07/28 01:25:26;;;;;;;4.90;3.05;;;10.50;99.90;;;;;;4972069;28;20054;-65
2022/07/28 01:28:05;;;;;;;5.78;2.50;;;10.50;99.90;;;;;;4974281;28;20219;-65
2022/07/28 01:30:46;;;;;;;5.45;2.70;;;10.50;99.90;;;;;;4971952;28;20050;-65
2022/07/28 01:33:16;;;;;;;7.22;2.50;;;10.50;99.90;;;;;;4971964;28;20051;-64
2022/07/28 01:35:53;;;;;;;5.35;2.70;;;10.50;99.90;;;;;;4971323;28;20038;-66
2022/07/28 01:38:22;;;;;;;7.10;2.50;;;10.50;99.90;;;;;;4981536;28;20034;-65
2022/07/28 01:40:51;;;;;;;5.38;2.85;;;10.40;99.90;;;;;;4971370;28;20070;-66
2022/07/28 01:43:20;;;;;;;4.53;2.80;;;10.40;99.90;;;;;;4970638;28;20156;-65
2022/07/28 01:45:46;;;;;;;4.93;2.88;;;10.40;99.90;;;;;;4975086;28;20031;-66
2022/07/28 01:48:15;;;;;;;7.38;3.25;;;10.40;99.90;;;;;;4971740;28;20041;-66
2022/07/28 01:50:42;;;;;;;6.47;2.97;;;10.40;99.90;;;;;;4971793;28;20043;-65
2022/07/28 01:53:11;;;;;;;4.80;2.80;;;10.50;99.90;;;;;;4971864;28;20387;-64
2022/07/28 01:55:38;;;;;;;5.00;2.85;;;10.40;99.90;;;;;;4971460;28;20061;-66
2022/07/28 01:58:05;;;;;;;4.72;2.80;;;10.40;99.90;;;;;;4971455;28;20035;-65
2022/07/28 02:00:32;;;;;;;5.38;2.40;;;10.30;99.90;;;;;;4971791;28;20046;-64
2022/07/28 02:03:02;;;;;;;3.88;2.40;;;10.20;99.90;;;;;;4982993;28;20113;-66
2022/07/28 02:05:29;;;;;;;4.50;2.83;;;10.00;99.90;;;;;;4971541;28;20499;-66
2022/07/28 02:07:58;;;;;;;4.35;2.65;;;10.00;99.90;;;;;;4971418;28;20603;-66
2022/07/28 02:10:25;;;;;;;4.45;2.28;;;9.90;99.90;;;;;;4977994;28;20051;-66
2022/07/28 02:12:53;;;;;;;3.92;2.20;;;9.80;99.90;;;;;;4970728;28;20121;-66
2022/07/28 02:15:20;;;;;;;11.18;2.72;;;9.80;99.90;;;;;;4971387;28;20101;-66
2022/07/28 02:17:48;;;;;;;5.57;2.55;;;9.80;99.90;;;;;;4970453;28;20039;-66
2022/07/28 02:20:16;;;;;;;7.25;3.03;;;9.80;99.90;;;;;;4971971;28;20479;-64
2022/07/28 02:22:43;;;;;;;5.07;2.78;;;9.90;99.90;;;;;;4971125;28;20472;-65
2022/07/28 02:25:09;;;;;;;3.40;2.50;;;9.90;99.90;;;;;;4970728;28;20038;-66
2022/07/28 02:27:40;;;;;;;3.88;2.90;;;9.80;99.90;;;;;;4977471;28;20073;-66
2022/07/28 02:30:06;;;;;;;4.95;2.70;;;9.70;99.90;;;;;;4971094;28;20039;-66
2022/07/28 02:32:37;;;;;;;3.97;2.60;;;9.70;99.90;;;;;;4971097;28;20663;-66
2022/07/28 02:35:07;;;;;;;;;;;9.70;99.90;;;;;;4977941;28;20046;-66
2022/07/28 02:37:37;;;;;;;5.10;3.13;;;9.70;99.90;;;;;;4971233;28;19944;-66
2022/07/28 02:40:04;;;;;;;6.18;2.95;;;9.60;99.90;;;;;;4970622;28;20030;-66
2022/07/28 02:42:33;;;;;;;6.43;3.13;;;9.70;99.90;;;;;;4970763;28;20125;-66
2022/07/28 02:45:02;;;;;;;5.10;2.97;;;9.70;99.90;;;;;;4975255;28;20105;-66
2022/07/28 02:47:39;;;;;;;5.25;3.03;;;9.70;99.90;;;;;;4976556;28;20042;-66
2022/07/28 02:50:06;;;;;;;4.65;3.20;;;9.70;99.90;;;;;;4972005;28;20499;-66
2022/07/28 02:52:33;;;;;;;5.88;3.03;;;9.70;99.90;;;;;;4965593;28;20093;-66
2022/07/28 02:55:00;;;;;;;5.00;3.17;;;9.70;99.90;;;;;;4970739;28;20082;-65
2022/07/28 02:57:27;;;;;;;6.35;3.33;;;9.70;99.90;;;;;;4973186;28;20046;-65
2022/07/28 02:59:54;;;;;;;6.80;3.55;;;9.70;99.90;;;;;;4974005;28;20069;-66
2022/07/28 03:02:21;;;;;;;5.85;3.45;;;9.70;99.90;;;;;;4975503;28;20094;-66
2022/07/28 03:04:57;;;;;;;4.72;3.20;;;9.60;99.90;;;;;;4970383;28;20047;-66
2022/07/28 03:07:31;;;;;;;4.60;2.90;;;9.60;99.90;;;;;;4973502;28;20035;-65
2022/07/28 03:09:57;;;;;;;5.25;3.35;;;9.60;99.90;;;;;;4971482;28;20035;-66
2022/07/28 03:12:23;;;;;;;7.28;3.50;;;9.60;99.90;;;;;;4970523;28;20035;-65
2022/07/28 03:14:49;;;;;;;6.25;3.42;;;9.60;99.90;;;;;;4968442;28;20046;-65
2022/07/28 03:17:15;;;;;;;4.55;3.20;;;9.70;99.90;;;;;;4982536;28;20627;-65
2022/07/28 03:19:41;;;;;;;4.38;3.00;;;9.60;99.90;;;;;;4970023;28;20050;-66
2022/07/28 03:22:07;;;;;;;15.23;2.45;;;9.60;99.90;;;;;;4970562;28;20035;-66
2022/07/28 03:24:39;;;;;;;40.20;2.45;;;9.60;99.90;;;;;;4977440;28;20414;-66
2022/07/28 03:27:13;;;;;;;18.65;2.60;;;9.60;99.90;;;;;;4974467;28;20043;-66
2022/07/28 03:29:41;;;;;;;5.53;3.20;;;9.50;99.90;;;;;;4955468;28;20156;-66
2022/07/28 03:32:08;;;;;;;5.82;3.50;;;9.50;99.90;;;;;;4974593;28;20070;-66
2022/07/28 03:34:34;;;;;;;4.10;2.90;;;9.50;99.90;;;;;;4954498;28;20043;-66
2022/07/28 03:37:06;;;;;;;4.57;3.28;;;9.50;99.90;;;;;;4968354;28;20047;-65
2022/07/28 03:39:38;;;;;;;6.40;3.55;;;9.50;99.90;;;;;;4971278;28;20514;-66
2022/07/28 03:42:04;;;;;;;6.15;3.60;;;9.50;99.90;;;;;;4980023;28;20066;-66
2022/07/28 03:44:31;;;;;;;5.55;3.00;;;9.50;99.90;;;;;;4970219;28;20041;-65
2022/07/28 03:46:56;;;;;;;3.80;2.70;;;9.40;99.90;;;;;;4971265;28;20047;-66
2022/07/28 03:49:22;;;;;;;3.55;2.88;;;9.30;99.90;;;;;;4969281;28;20399;-66
2022/07/28 03:51:47;;;;;;;4.65;3.17;;;9.20;99.90;;;;;;4978731;28;20290;-66
2022/07/28 03:54:13;;;;;;;4.72;3.13;;;9.10;99.90;;;;;;4974414;28;20065;-66
2022/07/28 03:56:39;;;;;;;6.95;3.08;;;9.10;99.90;;;;;;4973807;28;20039;-66
2022/07/28 03:59:05;;;;;;;7.78;3.08;;;9.10;99.90;;;;;;4976652;28;20143;-65
2022/07/28 04:01:30;;;;;;;5.00;2.95;;;9.10;99.90;;;;;;4977904;28;20038;-65
2022/07/28 04:03:56;;;;;;;9.77;3.03;;;9.00;99.90;;;;;;4974631;28;20113;-66
2022/07/28 04:06:21;;;;;;;7.20;3.50;;;9.10;99.90;;;;;;4973606;28;20474;-66
2022/07/28 04:08:47;;;;;;;5.05;3.03;;;9.00;99.90;;;;;;4976058;28;20133;-66
2022/07/28 04:11:13;;;;;;;4.88;3.30;;;9.10;99.90;;;;;;4980966;28;20045;-66
2022/07/28 04:13:39;;;;;;;7.35;3.20;;;9.10;99.90;;;;;;4973125;28;20503;-65
2022/07/28 04:16:05;;;;;;;4.18;2.97;;;9.20;99.90;;;;;;4984607;28;20042;-66
2022/07/28 04:18:31;;;;;;;4.20;3.03;;;9.20;99.90;;;;;;4974149;28;20039;-65
2022/07/28 04:20:57;;;;;;;4.15;3.03;;;9.30;99.90;;;;;;4981170;28;20038;-66
2022/07/28 04:23:23;;;;;;;5.60;3.83;;;9.20;99.90;;;;;;4981925;28;20034;-65
2022/07/28 04:25:48;;;;;;;9.63;2.97;;;9.30;99.90;;;;;;4977887;28;20031;-66
2022/07/28 04:28:14;;;;;;;11.85;3.90;;;9.30;99.90;;;;;;4982603;28;20124;-63
2022/07/28 04:30:40;;;;;;;5.10;2.90;;;9.40;99.90;;;;;;4972131;28;20043;-65
2022/07/28 04:33:05;;;;;;;7.82;3.97;;;9.40;99.90;;;;;;4974005;28;20234;-64
2022/07/28 04:35:33;;;;;;;6.95;4.13;;;9.40;99.90;;;;;;4974522;28;20042;-66
2022/07/28 04:37:59;;;;;;;7.20;3.75;;;9.30;99.90;;;;;;4979464;28;20039;-66
2022/07/28 04:40:26;;;;;;;6.47;4.18;;;9.40;99.90;;;;;;4988377;28;20038;-66
2022/07/28 04:42:53;;;;;;;6.63;3.95;;;9.30;99.90;;;;;;4984168;28;20071;-66
2022/07/28 04:45:18;;;;;;;5.88;3.20;;;9.40;99.90;;;;;;4973316;28;20047;-66
2022/07/28 04:47:44;;;;;;;6.32;3.00;;;9.40;99.90;;;;;;4973838;28;20565;-66
2022/07/28 04:50:14;;;;;;;4.60;2.92;;;9.30;99.90;;;;;;4974117;28;20050;-65
2022/07/28 04:52:39;;;;;;;4.90;3.58;;;9.30;99.90;;;;;;4981321;28;20034;-66
2022/07/28 04:55:06;;;;;;;6.63;3.70;;;9.20;99.90;;;;;;4977856;28;20041;-66
2022/07/28 04:57:33;;;;;;;7.57;4.18;;;9.20;99.90;;;;;;4955929;28;20399;-66
2022/07/28 04:59:59;;;;;;;4.60;3.35;;;9.20;99.90;;;;;;4973915;28;20119;-66
2022/07/28 05:02:25;;;;;;;6.95;4.00;;;9.30;99.90;;;;;;4981566;28;20039;-65
2022/07/28 05:04:51;;;;;;;6.55;4.00;;;9.30;99.90;;;;;;4973218;28;20042;-65
2022/07/28 05:07:17;;;;;;;8.50;4.40;;;9.50;99.90;;;;;;4956170;28;20415;-65
2022/07/28 05:09:43;;;;;;;7.85;4.47;;;9.60;99.90;;;;;;4975887;28;20035;-66
2022/07/28 05:12:09;;;;;;;6.72;4.47;;;9.60;99.90;;;;;;4955308;28;20042;-66
2022/07/28 05:14:35;;;;;;;6.03;3.67;;;9.70;99.90;;;;;;4973475;28;20142;-66
2022/07/28 05:17:00;;;;;;;8.85;4.65;;;9.80;99.90;;;;;;4985611;28;20537;-64
2022/07/28 05:19:26;;;;;;;7.18;4.70;;;9.90;99.90;;;;;;4982710;28;20049;-66
2022/07/28 05:21:52;;;;;;;6.22;4.53;;;10.10;99.90;;;;;;4992418;28;20034;-66
2022/07/28 05:24:17;;;;;;;6.35;4.60;;;10.10;99.90;;;;;;4958214;28;20046;-66
2022/07/28 05:26:43;;;;;;;8.23;4.50;;;10.30;99.90;;;;;;4978159;28;20066;-65
2022/07/28 05:29:09;;;;;;;8.13;5.00;;;10.40;99.90;;;;;;4959688;28;20062;-66
2022/07/28 05:31:34;;;;;;;8.48;5.32;;;10.50;99.90;;;;;;4991482;28;20038;-66
2022/07/28 05:34:00;;;;;;;10.25;5.30;;;10.60;99.90;;;;;;4976602;28;20078;-66
2022/07/28 05:36:26;;;;;;;9.40;5.13;;;10.70;99.90;;;;;;4980477;28;20031;-66
2022/07/28 05:38:52;;;;;;;9.52;5.65;;;10.90;99.90;;;;;;4971367;28;20035;-66
2022/07/28 05:41:18;;;;;;;9.32;6.05;;;11.00;99.90;;;;;;4974679;28;20411;-66
2022/07/28 05:43:43;;;;;;;8.82;6.00;;;11.20;99.90;;;;;;4971788;28;20050;-66
2022/07/28 05:46:09;;;;;;;10.52;5.88;;;11.30;99.90;;;;;;4972751;28;20049;-65
2022/07/28 05:48:35;;;;;;;12.15;5.75;;;11.40;99.90;;;;;;4991103;28;20038;-66
2022/07/28 05:51:01;;;;;;;9.52;5.70;;;11.60;99.90;;;;;;4975180;28;20148;-66
2022/07/28 05:53:26;;;;;;;9.93;5.93;;;11.70;99.90;;;;;;4971623;28;20057;-65
2022/07/28 05:55:52;;;;;;;8.50;5.60;;;11.80;99.90;;;;;;4974274;28;20049;-66
2022/07/28 05:58:22;;;;;;;13.23;6.70;;;12.00;99.90;;;;;;4975775;28;20035;-66
2022/07/28 06:00:48;;;;;;;11.95;6.40;;;12.10;99.90;;;;;;4973394;28;20498;-66
2022/07/28 06:03:14;;;;;;;10.68;5.82;;;12.30;99.90;;;;;;4972506;28;20042;-66
2022/07/28 06:05:39;;;;;;;9.82;6.03;;;12.50;99.90;;;;;;4977099;28;20300;-66
2022/07/28 06:08:05;;;;;;;11.43;6.03;;;12.70;99.90;;;;;;4958172;28;20406;-66
2022/07/28 06:10:57;;;;;;;11.23;5.75;;;12.90;99.90;;;;;;4971846;28;20049;-66
2022/07/28 06:13:17;;;;;;;11.20;5.68;;;13.10;99.90;;;;;;4971761;28;20043;-65
2022/07/28 06:15:45;;;;;;;14.50;5.88;;;13.30;99.90;;;;;;4972409;28;20506;-66
2022/07/28 06:18:11;;;;;;;10.60;5.55;;;13.50;99.90;;;;;;4978828;28;20153;-66
2022/07/28 06:20:37;;;;;;;9.68;5.63;;;13.70;99.90;;;;;;4971960;28;20566;-64
2022/07/28 06:23:04;;;;;;;10.68;5.57;;;13.90;99.90;;;;;;4977000;28;20053;-66
2022/07/28 06:25:30;;;;;;;14.60;5.60;;;14.00;99.90;;;;;;4959974;28;20551;-65
2022/07/28 06:27:58;;;;;;;17.92;5.20;;;14.10;99.90;;;;;;4974251;28;20122;-66
2022/07/28 06:30:25;;;;;;;8.90;5.07;;;14.20;99.90;;;;;;4954942;28;20078;-66
2022/07/28 06:32:51;;;;;;;10.60;4.95;;;14.40;99.90;;;;;;4969386;28;20122;-65
2022/07/28 06:35:17;;;;;;;9.05;4.10;;;14.50;99.90;;;;;;4976222;28;20030;-66
2022/07/28 06:37:43;;;;;;;13.20;4.30;;;14.60;99.90;;;;;;4981728;28;20509;-65
2022/07/28 06:40:12;;;;;;;11.95;4.10;;;14.70;99.90;;;;;;4975554;28;20039;-65
2022/07/28 06:42:39;;;;;;;10.57;4.13;;;14.80;99.90;;;;;;4970012;28;20430;-66
2022/07/28 06:45:06;;;;;;;11.20;3.85;;;14.90;99.90;;;;;;4973716;28;20043;-64
2022/07/28 06:47:32;;;;;;;7.35;4.10;;;14.90;99.90;;;;;;4971170;28;20072;-66
2022/07/28 06:49:58;;;;;;;9.63;3.80;;;15.00;99.90;;;;;;4970606;28;20411;-66
2022/07/28 06:52:24;;;;;;;8.35;3.58;;;15.20;99.90;;;;;;4970205;28;20047;-66
2022/07/28 06:54:50;;;;;;;10.52;5.43;;;15.20;99.90;;;;;;4970641;28;20039;-65
2022/07/28 06:57:20;;;;;;;13.45;5.65;;;15.30;99.90;;;;;;4968071;28;20141;-66
2022/07/28 06:59:47;;;;;;;10.18;4.63;;;15.40;99.90;;;;;;4973048;28;20523;-66
2022/07/28 07:02:13;;;;;;;9.27;4.05;;;15.40;99.90;;;;;;4974967;28;20406;-66
2022/07/28 07:04:38;;;;;;;11.77;4.53;;;15.50;99.90;;;;;;4965904;28;20039;-63
2022/07/28 07:07:05;;;;;;;14.43;5.07;;;15.60;99.90;;;;;;4970083;28;20459;-66
2022/07/28 07:09:31;;;;;;;9.98;4.70;;;15.60;99.90;;;;;;4971574;28;20039;-66
2022/07/28 07:11:56;;;;;;;11.27;4.95;;;15.70;99.90;;;;;;4970713;28;20054;-66
2022/07/28 07:14:22;;;;;;;10.52;3.95;;;15.80;99.90;;;;;;4974631;28;20515;-66
2022/07/28 07:16:48;;;;;;;8.07;4.05;;;15.80;99.90;;;;;;4970802;28;20117;-64
2022/07/28 07:19:13;;;;;;;7.32;3.20;;;15.90;99.90;;;;;;4973594;28;20453;-66
2022/07/28 07:21:39;;;;;;;11.50;3.60;;;16.00;99.90;;;;;;4969437;28;20046;-66
2022/07/28 07:24:05;;;;;;;6.97;3.40;;;16.10;99.90;;;;;;4984766;28;20038;-65
2022/07/28 07:26:31;;;;;;;5.70;2.60;;;16.20;99.90;;;;;;4975157;28;20054;-66
2022/07/28 07:28:57;;;;;;;6.13;3.03;;;16.20;99.90;;;;;;4976925;28;20042;-66
2022/07/28 07:31:22;;;;;;;4.85;2.70;;;16.30;99.90;;;;;;4991165;28;20042;-65
2022/07/28 07:33:48;;;;;;;6.38;1.98;;;16.30;99.90;;;;;;4994370;28;20483;-65
2022/07/28 07:36:13;;;;;;;6.25;1.80;;;16.30;99.90;;;;;;4989135;23;20109;-66
2022/07/28 07:38:39;;;;;;;3.88;1.90;;;16.40;99.90;;;;;;4942591;29;20098;-66
2022/07/28 07:41:05;;;;;;;4.90;1.83;;;16.50;99.90;;;;;;4949197;29;20053;-66
2022/07/28 07:43:31;;;;;;;3.45;1.77;;;16.50;99.90;;;;;;4955480;29;20050;-66
2022/07/28 07:45:56;;;;;;;3.90;1.70;;;16.60;99.90;;;;;;4936499;29;20047;-66
2022/07/28 07:48:22;;;;;;;3.50;1.60;;;16.60;99.90;;;;;;4951889;29;20046;-67
2022/07/28 07:50:48;;;;;;;4.68;1.52;;;16.60;99.90;;;;;;4950620;29;20166;-66
2022/07/28 07:53:14;;;;;;;6.10;1.70;;;16.60;99.90;;;;;;4955151;29;20039;-66
2022/07/28 07:55:40;;;;;;;3.50;1.45;;;16.60;99.90;;;;;;4947652;29;20388;-66
2022/07/28 07:58:05;;;;;;;3.10;1.40;;;16.60;99.90;;;;;;4951261;29;20153;-66
2022/07/28 08:00:31;;;;;;;2.08;1.50;;;16.70;99.90;;;;;;4946350;29;20126;-65
2022/07/28 08:02:57;;;;;;;1.92;1.50;;;16.70;99.90;;;;;;4945408;29;21861;-66
2022/07/28 08:05:24;;;;;;;5.10;1.30;;;16.80;99.90;;;;;;4942620;29;20236;-65
2022/07/28 08:07:49;;;;;;;4.53;1.65;;;16.80;99.90;;;;;;4945035;29;20038;-66
2022/07/28 08:10:15;;;;;;;7.07;1.70;;;16.80;99.90;;;;;;4943219;29;20040;-66
2022/07/28 08:12:40;;;;;;;5.30;1.70;;;16.80;99.90;;;;;;4929433;29;20043;-65
2022/07/28 08:15:07;;;;;;;5.65;1.65;;;16.80;99.90;;;;;;4945060;29;20035;-65
2022/07/28 08:17:33;;;;;;;4.90;1.67;;;16.90;99.90;;;;;;4953808;28;20050;-64
2022/07/28 08:19:59;;;;;;;3.13;1.50;;;17.00;99.90;;;;;;4954967;29;20039;-65
2022/07/28 08:22:24;;;;;;;2.92;1.60;;;17.20;99.90;;;;;;4933249;29;20043;-65
2022/07/28 08:24:50;;;;;;;8.05;1.60;;;17.20;99.90;;;;;;4953475;29;20039;-65
2022/07/28 08:27:16;;;;;;;3.13;1.65;;;17.20;99.90;;;;;;4955160;28;20039;-66
2022/07/28 08:29:42;;;;;;;3.35;1.30;;;17.30;99.90;;;;;;4946925;29;20043;-65
2022/07/28 08:32:08;;;;;;;3.78;1.50;;;17.40;99.90;;;;;;4954167;29;20027;-66
2022/07/28 08:34:34;;;;;;;2.95;1.50;;;17.60;99.90;;;;;;4946213;29;20400;-64
2022/07/28 08:37:02;;;;;;;3.63;1.45;;;17.70;99.90;;;;;;4935485;29;20040;-66
2022/07/28 08:39:29;;;;;;;2.58;1.50;;;17.80;99.90;;;;;;4941174;29;20035;-65
2022/07/28 08:41:58;;;;;;;3.75;1.67;;;18.00;99.90;;;;;;4953961;29;20093;-66
2022/07/28 08:44:29;;;;;;;2.13;1.33;;;18.10;99.90;;;;;;4954567;29;20043;-65
2022/07/28 08:46:56;;;;;;;4.38;1.70;;;18.40;99.90;;;;;;4946454;28;20042;-65
2022/07/28 08:49:22;;;;;;;8.90;1.95;;;18.60;99.90;;;;;;4952087;29;20039;-65
2022/07/28 08:51:48;;;;;;;8.20;1.73;;;18.60;99.90;;;;;;4954445;29;20036;-65
2022/07/28 08:54:25;;;;;;;9.50;1.85;;;18.70;98.60;;;;;;4942766;29;20491;-65
2022/07/28 08:56:51;;;;;;;3.72;1.88;;;18.80;99.20;;;;;;4942840;28;20125;-65
2022/07/28 08:59:17;;;;;;;7.40;2.03;;;18.80;99.90;;;;;;4940419;29;20109;-65
2022/07/28 09:01:43;;;;;;;5.40;1.67;;;18.70;99.70;;;;;;4924411;29;20484;-65
2022/07/28 09:04:11;;;;;;;3.42;1.40;;;18.90;99.90;;;;;;4930569;29;20035;-65
2022/07/28 09:06:41;;;;;;;3.22;1.88;;;19.10;99.90;;;;;;4940583;29;20523;-65
2022/07/28 09:09:10;;;;;;;2.92;1.60;;;19.10;99.90;;;;;;4942426;29;20447;-65
2022/07/28 09:11:38;;;;;;;6.25;1.77;;;19.10;99.90;;;;;;4942919;29;20492;-66
2022/07/28 09:14:05;;;;;;;5.03;1.52;;;19.00;99.50;;;;;;4943751;29;20047;-66
2022/07/28 09:16:31;;;;;;;2.92;1.90;;;19.10;99.90;;;;;;4947025;28;20039;-66
2022/07/28 09:18:57;;;;;;;2.67;1.52;;;19.20;99.40;;;;;;4937623;29;20444;-66
2022/07/28 09:21:23;;;;;;;4.05;1.70;;;19.30;99.90;;;;;;4951218;29;20148;-66
2022/07/28 09:23:49;;;;;;;5.03;1.48;;;19.40;99.10;;;;;;4953751;29;20136;-66
2022/07/28 09:26:16;;;;;;;4.20;1.98;;;19.60;99.90;;;;;;4953360;28;20505;-67
2022/07/28 09:28:48;;;;;;;3.83;1.90;;;19.70;98.20;;;;;;4941454;29;20066;-66
2022/07/28 09:31:15;;;;;;;6.93;2.08;;;19.50;96.60;;;;;;4938341;29;20403;-66
2022/07/28 09:34:01;;;;;;;10.75;2.00;;;19.30;98.00;;;;;;4952845;29;20474;-66
2022/07/28 09:36:37;;;;;;;4.03;1.63;;;19.00;96.80;;;;;;4945846;28;20047;-66
2022/07/28 09:39:03;;;;;;;5.30;1.65;;;19.10;99.10;;;;;;4952098;29;20035;-66
2022/07/28 09:41:48;;;;;;;5.25;1.67;;;19.50;99.90;;;;;;4953130;29;20405;-66
2022/07/28 09:44:20;;;;;;;8.02;1.85;;;19.70;98.70;;;;;;4953404;29;20054;-66
2022/07/28 09:46:46;;;;;;;4.63;1.70;;;19.90;98.30;;;;;;4939037;28;20070;-65
2022/07/28 09:49:13;;;;;;;5.00;1.40;;;20.20;99.40;;;;;;4948218;28;20089;-66
2022/07/28 09:51:39;;;;;;;3.55;1.40;;;20.50;97.70;;;;;;4950660;29;20047;-65
2022/07/28 09:54:13;;;;;;;4.57;1.33;;;20.40;97.50;;;;;;4942353;29;20040;-66
2022/07/28 09:56:44;;;;;;;1.80;1.38;;;20.30;96.20;;;;;;4953019;28;20043;-66
2022/07/28 09:59:10;;;;;;;3.78;1.60;;;20.20;97.30;;;;;;4953288;29;20507;-66
2022/07/28 10:01:59;;;;;;;5.50;1.85;;;20.00;96.50;;;;;;4946170;29;20078;-66
2022/07/28 10:04:52;;;;;;;3.65;1.48;;;19.90;96.60;;;;;;4940827;29;20054;-66
2022/07/28 10:07:18;;;;;;;8.00;1.67;;;19.90;96.10;;;;;;4947619;28;20086;-66
2022/07/28 10:10:03;;;;;;;2.80;1.67;;;19.80;98.30;;;;;;4943349;29;20039;-66
2022/07/28 10:12:31;;;;;;;3.78;1.48;;;19.80;97.40;;;;;;4950607;29;20122;-66
2022/07/28 10:16:09;;;;;;;4.90;1.80;;;20.10;96.20;;;;;;4951249;29;20078;-67
2022/07/28 10:17:55;;;;;;;3.15;1.50;;;20.50;96.80;;;;;;4935830;29;20043;-66
2022/07/28 10:20:28;;;;;;;4.78;1.80;;;21.00;97.10;;;;;;5086980;28;20779;-65
2022/07/28 10:23:05;;;;;;;5.57;1.60;;;21.30;96.70;;;;;;5085059;28;20070;-66
2022/07/28 10:25:33;;;;;;;5.20;1.50;;;21.50;95.00;;;;;;5080879;28;20556;-65
2022/07/28 10:28:01;;;;;;;4.13;1.60;;;21.60;93.70;;;;;;5077833;28;20094;-66
2022/07/28 10:30:33;;;;;;;3.22;1.65;;;21.40;94.50;;;;;;5071587;28;20490;-66
2022/07/28 10:33:03;;;;;;;2.25;1.20;;;21.40;93.00;;;;;;5067621;28;21895;-66
2022/07/28 10:35:31;;;;;;;2.42;1.27;;;21.30;92.10;;;;;;5079517;28;20039;-66
2022/07/28 10:37:58;;;;;;;2.42;1.00;;;21.20;93.30;;;;;;5085819;28;20036;-66
2022/07/28 10:40:31;;;;;;;3.70;1.40;;;21.10;94.10;;;;;;5084345;28;20037;-65
2022/07/28 10:42:58;;;;;;;2.10;1.10;;;21.20;90.70;;;;;;5074120;28;20032;-66
2022/07/28 10:45:25;;;;;;;3.92;1.40;;;21.20;91.80;;;;;;5086424;28;20068;-66
2022/07/28 10:47:52;;;;;;;1.92;1.30;;;21.30;92.90;;;;;;5087604;28;20040;-66
2022/07/28 10:50:18;;;;;;;4.07;1.50;;;21.50;92.60;;;;;;5087549;28;20044;-65
2022/07/28 10:52:45;;;;;;;5.15;1.20;;;21.70;90.20;;;;;;5077044;28;20090;-66
2022/07/28 10:55:14;;;;;;;3.30;1.10;;;21.80;91.30;;;;;;5074571;28;20087;-66
2022/07/28 10:57:51;;;;;;;4.38;1.30;;;21.90;90.70;;;;;;5075315;28;20510;-66
2022/07/28 11:00:23;;;;;;;2.30;1.20;;;22.10;89.90;;;;;;5075632;28;20098;-66
2022/07/28 11:02:59;;;;;;;2.75;1.30;;;22.30;85.80;;;;;;5084732;28;20029;-65
2022/07/28 11:05:24;;;;;;;2.85;1.30;;;22.20;83.90;;;;;;5085834;28;20028;-65
2022/07/28 11:07:50;;;;;;;2.15;1.20;;;22.20;88.30;;;;;;5082492;28;20074;-66
2022/07/28 11:10:17;;;;;;;2.67;1.30;;;22.10;82.70;;;;;;5073492;28;20036;-66
2022/07/28 11:12:48;;;;;;;2.55;1.38;;;22.10;86.70;;;;;;5084886;28;20032;-66
2022/07/28 11:15:35;;;;;;;2.45;1.55;;;22.10;89.00;;;;;;5083732;28;20045;-66
2022/07/28 11:18:03;;;;;;;4.30;1.30;;;22.20;86.70;;;;;;5087524;28;20058;-65
2022/07/28 11:20:59;;;;;;;3.83;1.65;;;22.20;90.30;;;;;;5086377;28;20107;-66
2022/07/28 11:23:42;;;;;;;1.98;1.30;;;22.10;84.60;;;;;;5083652;28;20042;-66
2022/07/28 11:26:35;;;;;;;3.95;1.42;;;21.90;88.80;;;;;;5073790;28;20032;-65
2022/07/28 11:29:07;;;;;;;6.85;1.60;;;22.30;90.00;;;;;;5101269;28;20467;-65
2022/07/28 11:34:17;;;;;;;6.13;1.40;;;22.80;85.40;;;;;;5062617;28;20053;-66
2022/07/28 11:37:11;;;;;;;3.45;1.60;;;22.60;87.60;;;;;;5064943;28;20102;-66
2022/07/28 11:39:38;;;;;;;3.33;1.33;;;22.50;87.20;;;;;;5072771;28;20128;-66
2022/07/28 11:42:28;;;;;;;2.17;1.23;;;22.60;88.50;;;;;;5061141;28;20052;-66
2022/07/28 11:44:55;;;;;;;2.30;1.48;;;22.30;83.10;;;;;;5070537;28;20094;-66
2022/07/28 11:47:22;;;;;;;2.67;1.40;;;22.30;84.80;;;;;;5072854;28;20037;-66
2022/07/28 11:50:16;;;;;;;5.07;1.48;;;22.20;87.50;;;;;;5066698;28;20076;-65
2022/07/28 11:52:55;;;;;;;4.25;1.52;;;22.40;84.80;;;;;;5074225;28;20036;-66
2022/07/28 11:55:21;;;;;;;3.50;1.50;;;22.80;80.10;;;;;;5092596;28;20055;-66
2022/07/28 11:57:47;;;;;;;3.38;1.35;;;23.20;85.60;;;;;;5074010;28;20031;-66
2022/07/28 12:00:20;;;;;;;2.70;1.40;;;23.30;84.20;;;;;;5064565;28;20036;-66
2022/07/28 12:02:46;;;;;;;6.72;1.48;;;23.30;82.50;;;;;;5064790;28;20078;-66
2022/07/28 12:05:13;;;;;;;2.55;1.30;;;23.30;83.00;;;;;;5062923;28;20477;-66
2022/07/28 12:07:42;;;;;;;5.95;1.23;;;23.00;84.60;;;;;;5066487;28;20040;-66
2022/07/28 12:10:31;;;;;;;3.78;1.27;;;22.70;85.60;;;;;;5052774;28;20029;-66
2022/07/28 12:13:01;;;;;;;3.13;1.20;;;22.90;85.90;;;;;;5047377;28;20041;-65
2022/07/28 12:15:27;;;;;;;4.05;1.30;;;23.10;84.10;;;;;;5068948;28;20159;-66
2022/07/28 12:17:54;;;;;;;4.07;1.15;;;23.40;86.60;;;;;;5067565;28;20068;-66
2022/07/28 12:20:20;;;;;;;3.08;1.50;;;23.50;81.80;;;;;;5052473;28;20045;-65
2022/07/28 12:22:59;;;;;;;2.80;1.50;;;23.80;81.10;;;;;;5064406;28;20039;-67
2022/07/28 12:25:26;;;;;;;5.13;1.42;;;24.00;75.90;;;;;;5064594;28;20033;-66
2022/07/28 12:27:53;;;;;;;2.35;1.25;;;24.20;80.20;;;;;;5070287;28;20294;-66
2022/07/28 12:30:27;;;;;;;3.45;1.20;;;24.50;82.20;;;;;;5065615;28;20385;-66
2022/07/28 12:32:53;;;;;;;6.00;1.42;;;24.60;77.70;;;;;;5065775;28;20040;-66
2022/07/28 12:35:21;;;;;;;3.85;1.30;;;24.60;77.60;;;;;;5049354;28;20037;-64
2022/07/28 12:37:48;;;;;;;3.75;1.40;;;24.60;77.20;;;;;;5059266;28;20036;-66
2022/07/28 12:40:16;;;;;;;3.15;1.15;;;24.70;76.40;;;;;;5059385;28;20036;-66
2022/07/28 12:42:42;;;;;;;7.53;1.48;;;24.60;69.00;;;;;;5062228;28;20501;-66
2022/07/28 12:45:09;;;;;;;3.92;1.50;;;24.40;72.90;;;;;;5069218;28;20037;-65
2022/07/28 12:47:35;;;;;;;4.10;1.40;;;24.60;73.30;;;;;;5061763;28;20040;-66
2022/07/28 12:50:15;;;;;;;3.05;1.27;;;24.60;73.00;;;;;;5064215;28;20059;-66
2022/07/28 12:52:44;;;;;;;3.03;1.17;;;24.30;68.50;;;;;;5070240;28;20391;-66
2022/07/28 12:55:21;;;;;;;3.03;1.20;;;24.40;71.60;;;;;;5062522;28;20515;-66
2022/07/28 12:57:49;;;;;;;5.25;1.45;;;24.40;67.90;;;;;;5056330;28;20041;-66